Terminal Aerodrome Forecast
Issued by NWS Detroit/Pontiac, MI

Home | Current Version | Previous Version | Text Only | Print | Product List | Glossary On
Versions: 1 2 3 4 5 6 7 8 9 10 11 12 13 14 15 16 17 18
000
FTUS43 KDTX 031227 AAA
TAFFNT
TAF AMD
KFNT 031227Z 0312/0412 15008KT P6SM SCT035 OVC070
     FM031300 15010KT 3SM -SN BR OVC025
     FM031500 16012KT 1SM -SN BR OVC015
      TEMPO 0315/0317 1/2SM SN OVC009
     FM031900 17012KT 1SM -FZRAPL BR BKN008 OVC015
     FM032300 21012KT 2SM -DZ BR OVC007
     FM040100 26013KT P6SM OVC007
     FM040600 29010KT P6SM SCT025 BKN035=

USA.gov is the U.S. government's official web portal to all federal, state and local government web resources and services.